Capitol Logistics 3271


KTLH
Tallahassee International Airport
Tallahassee, Florida, US
KMIA
Miami International Airport
Miami, Florida, US

Activity Log

Date Flight Route Aircraft Duration
06/08/2019 CPX671 HEVVN NICKI JUULI SSCOT5 SF34 1h 37m

Route Details

Aircraft Information
Primary: Saab 340AF
Backup: Not Available
Route Data
Distance: 350nm
Sched. Duration: 2h 00m
Avg. Duration: 1h 37m (-63m)
Times Flown: 1
Recm'd Route: HEVVN NICKI JUULI SSCOT5
Planned Altitude: 17,000ft
Origin Wx: KTLH 270953Z AUTO 33012KT 10SM CLR 06/00 A3016 RMK AO2 SLP213 T00610000
Dest. Wx: KMIA 270953Z 31009KT 10SM SCT014 BKN075 BKN230 20/16 A2999 RMK AO2 SLP156 T02000161 $
Notes:

Financial History
Total Freight: 6,885lbs
Average Load: 6,885lbs/flt
Fuel Used: 1,578lbs
Avg. Fuel Used: 1,578lbs/flt
Fuel Expense: $1,515
Avg. Fuel Expense: $1,515
Avg. Fuel Cost: $0.96/lbs
Total Gross Income: $7,711
Pilot Pay: $149
Total Expenses: $885
Total Revenue: $4,941
Average Revenue: $7,711.20